createdAt,value
2023-03-16T00:01:42.030Z,4.13
2023-03-16T00:04:08.725Z,3.70
2023-03-16T00:06:59.937Z,4.07
2023-03-16T00:09:31.048Z,4.10
2023-03-16T00:11:58.907Z,3.53
2023-03-16T00:14:26.205Z,4.17
2023-03-16T00:16:53.285Z,4.63
2023-03-16T00:19:19.713Z,6.40
2023-03-16T00:21:46.071Z,5.83
2023-03-16T00:24:12.817Z,4.00
2023-03-16T00:26:39.214Z,4.43
2023-03-16T00:29:05.639Z,4.27
2023-03-16T00:31:33.684Z,4.50
2023-03-16T00:33:59.968Z,4.27
2023-03-16T00:36:26.302Z,3.60
2023-03-16T00:38:54.093Z,3.50
2023-03-16T00:41:20.442Z,4.00
2023-03-16T00:43:48.683Z,4.00
2023-03-16T00:46:17.037Z,3.83
2023-03-16T00:48:46.592Z,4.03
2023-03-16T00:51:16.227Z,3.63
2023-03-16T00:53:44.626Z,3.53
2023-03-16T00:56:12.265Z,3.50
2023-03-16T00:58:40.185Z,3.60
2023-03-16T01:01:09.060Z,3.20
2023-03-16T01:03:35.832Z,3.57
2023-03-16T01:06:07.286Z,3.40
2023-03-16T01:08:33.645Z,3.20
2023-03-16T01:11:10.697Z,4.07
2023-03-16T01:13:37.721Z,3.63
2023-03-16T01:16:04.444Z,3.60
2023-03-16T01:18:34.414Z,3.20
2023-03-16T01:21:03.405Z,3.33
2023-03-16T01:23:31.240Z,3.53
2023-03-16T01:25:58.358Z,3.30
2023-03-16T01:28:27.336Z,3.40
2023-03-16T01:30:57.455Z,3.10
2023-03-16T01:33:25.796Z,3.77
2023-03-16T01:35:56.996Z,3.20
2023-03-16T01:38:23.954Z,3.10
2023-03-16T01:40:51.971Z,3.63
2023-03-16T01:43:19.670Z,3.67
2023-03-16T01:46:04.329Z,2.80
2023-03-16T01:48:38.998Z,2.90
2023-03-16T01:51:10.421Z,3.40
2023-03-16T01:53:39.968Z,3.13
2023-03-16T01:56:12.870Z,3.40
2023-03-16T01:58:40.354Z,3.40
2023-03-16T02:01:06.985Z,3.27
2023-03-16T02:03:34.928Z,3.80
2023-03-16T02:06:12.970Z,4.07
2023-03-16T02:08:40.445Z,3.40
2023-03-16T02:11:09.598Z,3.30
2023-03-16T02:13:36.932Z,3.77
2023-03-16T02:16:06.586Z,3.07
2023-03-16T02:18:33.549Z,3.30
2023-03-16T02:21:33.038Z,3.33
2023-03-16T02:24:02.383Z,3.43
2023-03-16T02:27:01.842Z,3.60
2023-03-16T02:29:54.172Z,3.80
2023-03-16T02:32:23.064Z,3.33
2023-03-16T02:34:49.513Z,3.53
2023-03-16T02:37:15.892Z,3.70
2023-03-16T02:39:43.953Z,3.73
2023-03-16T02:42:16.813Z,3.93
2023-03-16T02:44:48.566Z,3.27
2023-03-16T02:47:42.343Z,3.00
2023-03-16T02:50:11.146Z,3.10
2023-03-16T02:52:38.734Z,3.57
2023-03-16T02:55:06.661Z,3.53
2023-03-16T02:57:33.395Z,4.20
2023-03-16T02:59:59.703Z,3.53
2023-03-16T03:02:26.059Z,4.03
2023-03-16T03:04:54.457Z,4.00
2023-03-16T03:07:21.326Z,3.67
2023-03-16T03:09:47.710Z,3.90
2023-03-16T03:12:14.190Z,3.80
2023-03-16T03:14:40.674Z,3.37
2023-03-16T03:17:08.262Z,3.40
2023-03-16T03:19:34.995Z,3.33
2023-03-16T03:22:06.522Z,3.83
2023-03-16T03:24:34.678Z,3.90
2023-03-16T03:27:05.584Z,3.80
2023-03-16T03:29:34.325Z,4.20
2023-03-16T03:32:02.225Z,4.40
2023-03-16T03:34:29.648Z,3.53
2023-03-16T03:36:56.170Z,3.73
2023-03-16T03:39:22.562Z,3.60
2023-03-16T03:41:48.896Z,3.70
2023-03-16T03:44:15.228Z,3.77
2023-03-16T03:46:41.719Z,3.73
2023-03-16T03:49:08.190Z,4.00
2023-03-16T03:51:34.657Z,3.87
2023-03-16T03:54:01.005Z,4.20
2023-03-16T03:56:27.390Z,4.13
2023-03-16T03:58:53.806Z,4.23
2023-03-16T04:01:20.920Z,4.47
2023-03-16T04:03:47.398Z,4.40
2023-03-16T04:06:13.708Z,4.00
2023-03-16T04:08:40.123Z,4.00
2023-03-16T04:11:06.400Z,4.47
2023-03-16T04:13:32.720Z,4.30
2023-03-16T04:16:02.686Z,4.60
2023-03-16T04:18:30.549Z,4.03
2023-03-16T04:20:56.882Z,4.80
2023-03-16T04:23:24.856Z,4.77
2023-03-16T04:25:51.769Z,4.70
2023-03-16T04:28:18.197Z,4.93
2023-03-16T04:30:44.613Z,4.80
2023-03-16T04:33:11.026Z,5.17
2023-03-16T04:35:37.455Z,4.67
2023-03-16T04:38:03.877Z,4.27
2023-03-16T04:40:30.293Z,5.07
2023-03-16T04:42:56.612Z,4.80
2023-03-16T04:45:23.024Z,5.63
2023-03-16T04:47:50.054Z,5.07
2023-03-16T04:50:16.450Z,5.10
2023-03-16T04:52:42.797Z,4.90
2023-03-16T04:55:09.414Z,4.90
2023-03-16T04:57:36.012Z,5.33
2023-03-16T05:00:09.678Z,5.10
2023-03-16T05:02:36.065Z,5.40
2023-03-16T05:05:03.844Z,5.20
2023-03-16T05:07:30.161Z,5.40
2023-03-16T05:09:56.493Z,5.20
2023-03-16T05:12:22.818Z,5.37
2023-03-16T05:14:49.145Z,5.67
2023-03-16T05:17:15.464Z,5.13
2023-03-16T05:19:42.263Z,5.80
2023-03-16T05:22:09.112Z,5.60
2023-03-16T05:24:37.045Z,6.43
2023-03-16T05:27:03.552Z,6.70
2023-03-16T05:29:31.124Z,5.80
2023-03-16T05:31:59.208Z,6.27
2023-03-16T05:34:26.118Z,6.07
2023-03-16T05:36:52.519Z,7.77
2023-03-16T05:39:18.866Z,7.73
2023-03-16T05:41:45.273Z,8.23
2023-03-16T05:44:11.895Z,7.60
2023-03-16T05:46:38.271Z,8.30
2023-03-16T05:49:04.696Z,8.80
2023-03-16T05:51:31.958Z,7.83
2023-03-16T05:53:58.394Z,8.27
2023-03-16T05:56:26.045Z,8.20
2023-03-16T05:58:53.963Z,8.63
2023-03-16T06:01:21.281Z,7.90
2023-03-16T06:03:49.184Z,8.27
2023-03-16T06:06:16.921Z,7.67
2023-03-16T06:08:43.300Z,8.40
2023-03-16T06:11:10.410Z,9.63
2023-03-16T06:13:37.599Z,8.97
2023-03-16T06:16:06.132Z,9.20
2023-03-16T06:18:33.886Z,8.77
2023-03-16T06:21:00.585Z,9.47
2023-03-16T06:23:26.929Z,9.33
2023-03-16T06:25:56.200Z,9.43
2023-03-16T06:28:23.222Z,9.80
2023-03-16T06:30:53.485Z,9.33
2023-03-16T06:33:19.818Z,9.63
2023-03-16T06:35:48.107Z,10.00
2023-03-16T06:38:14.455Z,9.20
2023-03-16T06:40:41.302Z,9.97
2023-03-16T06:43:08.017Z,9.97
2023-03-16T06:45:34.484Z,10.13
2023-03-16T06:48:00.943Z,10.43
2023-03-16T06:50:28.283Z,11.47
2023-03-16T06:52:54.786Z,9.50
2023-03-16T06:55:22.120Z,10.63
2023-03-16T06:57:48.411Z,9.40
2023-03-16T07:00:16.358Z,9.87
2023-03-16T07:02:43.655Z,9.80
2023-03-16T07:05:13.694Z,10.00
2023-03-16T07:07:43.786Z,9.60
2023-03-16T07:10:15.910Z,9.50
2023-03-16T07:12:42.280Z,10.20
2023-03-16T07:15:09.095Z,9.57
2023-03-16T07:17:35.422Z,9.67
2023-03-16T07:20:05.300Z,9.40
2023-03-16T07:22:32.519Z,9.23
2023-03-16T07:24:59.330Z,7.40
2023-03-16T07:27:25.636Z,7.43
2023-03-16T07:29:52.206Z,7.23
2023-03-16T07:32:19.241Z,7.33
2023-03-16T07:34:45.569Z,6.70
2023-03-16T07:37:11.995Z,6.70
2023-03-16T07:39:38.799Z,6.63
2023-03-16T07:42:05.233Z,6.17
2023-03-16T07:44:31.814Z,7.03
2023-03-16T07:46:58.183Z,6.10
2023-03-16T07:49:24.565Z,6.47
2023-03-16T07:51:51.375Z,6.90
2023-03-16T07:54:17.710Z,6.77
2023-03-16T07:56:49.228Z,7.20
2023-03-16T07:59:16.189Z,7.13
2023-03-16T08:01:42.817Z,7.80
2023-03-16T08:04:12.203Z,6.60
2023-03-16T08:06:38.869Z,7.60
2023-03-16T08:09:05.802Z,7.87
2023-03-16T08:11:32.154Z,7.33
2023-03-16T08:13:58.735Z,7.37
2023-03-16T08:16:26.595Z,6.27
2023-03-16T08:18:56.112Z,6.47
2023-03-16T08:21:23.695Z,6.53
2023-03-16T08:23:50.327Z,6.40
2023-03-16T08:26:17.790Z,5.93
2023-03-16T08:28:47.621Z,6.03
2023-03-16T08:31:15.252Z,5.70
2023-03-16T08:33:43.192Z,6.27
2023-03-16T08:36:12.006Z,6.03
2023-03-16T08:38:39.949Z,6.97
2023-03-16T08:41:07.075Z,6.67
2023-03-16T08:43:34.280Z,6.80
2023-03-16T08:46:01.670Z,6.03
2023-03-16T08:48:29.763Z,6.33
2023-03-16T08:50:56.168Z,6.17
2023-03-16T08:53:22.667Z,6.30
2023-03-16T08:55:48.977Z,5.77
2023-03-16T08:58:15.355Z,6.23
2023-03-16T09:00:44.295Z,6.10
2023-03-16T09:03:11.872Z,6.27
2023-03-16T09:05:38.203Z,6.13
2023-03-16T09:08:06.068Z,6.27
2023-03-16T09:10:33.061Z,6.03
2023-03-16T09:12:59.498Z,6.00
2023-03-16T09:15:26.714Z,6.00
2023-03-16T09:17:54.264Z,5.70
2023-03-16T09:20:26.113Z,5.80
2023-03-16T09:22:55.120Z,6.17
2023-03-16T09:25:21.821Z,6.37
2023-03-16T09:27:48.262Z,7.47
2023-03-16T09:30:16.608Z,7.13
2023-03-16T09:32:43.118Z,6.70
2023-03-16T09:35:09.643Z,6.57
2023-03-16T09:37:44.989Z,6.87
2023-03-16T09:40:33.328Z,6.17
2023-03-16T09:43:17.431Z,6.27
2023-03-16T09:46:16.358Z,6.97
2023-03-16T09:48:42.941Z,7.13
2023-03-16T09:51:20.905Z,6.53
2023-03-16T09:53:52.111Z,7.97
2023-03-16T09:56:27.482Z,6.93
2023-03-16T09:58:55.304Z,7.23
2023-03-16T10:01:52.292Z,6.43
2023-03-16T10:04:29.155Z,6.57
2023-03-16T10:07:16.236Z,6.17
2023-03-16T10:09:49.173Z,6.63
2023-03-16T10:12:16.187Z,6.77
2023-03-16T10:14:58.671Z,6.90
2023-03-16T10:17:38.929Z,6.27
2023-03-16T10:20:08.995Z,6.80
2023-03-16T10:22:42.297Z,5.90
2023-03-16T10:25:26.933Z,6.27
2023-03-16T10:27:54.047Z,6.50
2023-03-16T10:30:31.008Z,6.10
2023-03-16T10:33:03.357Z,5.90
2023-03-16T10:35:54.009Z,5.47
2023-03-16T10:38:47.002Z,4.80
2023-03-16T10:41:20.138Z,4.90
2023-03-16T10:43:55.558Z,4.63
2023-03-16T10:46:23.056Z,5.67
2023-03-16T10:49:00.754Z,5.03
2023-03-16T10:51:33.676Z,5.03
2023-03-16T10:54:16.066Z,5.10
2023-03-16T10:56:42.825Z,5.10
2023-03-16T10:59:27.858Z,5.13
2023-03-16T11:01:54.476Z,5.17
2023-03-16T11:04:20.934Z,5.10
2023-03-16T11:06:55.819Z,5.10
2023-03-16T11:09:32.942Z,5.07
2023-03-16T11:12:01.016Z,5.03
2023-03-16T11:14:28.579Z,5.00
2023-03-16T11:17:17.672Z,5.70
2023-03-16T11:19:48.602Z,5.07
2023-03-16T11:22:14.975Z,4.43
2023-03-16T11:25:02.908Z,4.60
2023-03-16T11:27:48.965Z,4.50
2023-03-16T11:30:19.970Z,4.67
2023-03-16T11:32:53.237Z,4.60
2023-03-16T11:35:34.642Z,5.10
2023-03-16T11:38:20.109Z,4.40
2023-03-16T11:40:58.975Z,4.67
2023-03-16T11:43:49.716Z,5.93
2023-03-16T11:46:24.347Z,5.03
2023-03-16T11:49:01.618Z,4.60
2023-03-16T11:51:52.732Z,4.47
2023-03-16T11:54:37.558Z,4.57
2023-03-16T11:57:19.768Z,4.97
2023-03-16T12:00:02.523Z,7.17
2023-03-16T12:02:40.319Z,4.77
2023-03-16T12:05:55.081Z,5.13
2023-03-16T12:09:04.339Z,4.90
2023-03-16T12:12:11.756Z,4.70
2023-03-16T12:14:52.564Z,4.57
2023-03-16T12:17:25.522Z,4.60
2023-03-16T12:20:05.394Z,5.13
2023-03-16T12:22:38.170Z,4.63
2023-03-16T12:25:14.646Z,4.50
2023-03-16T12:27:41.294Z,5.07
2023-03-16T12:30:20.531Z,4.53
2023-03-16T12:33:13.613Z,4.90
2023-03-16T12:35:51.489Z,4.77
2023-03-16T12:38:53.357Z,4.30
2023-03-16T12:41:36.423Z,4.67
2023-03-16T12:44:26.740Z,4.40
2023-03-16T12:47:09.989Z,5.00
2023-03-16T12:49:37.102Z,4.27
2023-03-16T12:52:06.514Z,3.93
2023-03-16T12:54:33.342Z,4.17
2023-03-16T12:57:04.641Z,3.60
2023-03-16T12:59:44.067Z,4.43
2023-03-16T13:02:38.640Z,4.00
2023-03-16T13:05:12.991Z,3.80
2023-03-16T13:07:48.573Z,4.07
2023-03-16T13:10:17.016Z,4.53
2023-03-16T13:12:44.118Z,4.23
2023-03-16T13:15:23.433Z,4.30
2023-03-16T13:18:08.627Z,4.50
2023-03-16T13:20:52.260Z,3.70
2023-03-16T13:23:23.798Z,3.83
2023-03-16T13:26:12.940Z,4.03
2023-03-16T13:28:39.943Z,3.87
2023-03-16T13:31:22.237Z,3.70
2023-03-16T13:34:00.141Z,3.87
2023-03-16T13:36:29.750Z,3.70
2023-03-16T13:39:22.364Z,4.43
2023-03-16T13:41:56.299Z,3.90
2023-03-16T13:44:24.237Z,3.50
2023-03-16T13:46:51.041Z,3.60
2023-03-16T13:49:18.508Z,3.30
2023-03-16T13:51:46.785Z,4.00
2023-03-16T13:54:23.450Z,3.00
2023-03-16T13:56:52.127Z,3.13
2023-03-16T13:59:20.014Z,3.00
2023-03-16T14:01:49.056Z,3.17
2023-03-16T14:04:18.806Z,3.57
2023-03-16T14:07:00.095Z,3.20
2023-03-16T14:09:31.758Z,3.10
2023-03-16T14:11:58.121Z,2.63
2023-03-16T14:14:29.181Z,2.70
2023-03-16T14:17:02.820Z,2.33
2023-03-16T14:19:36.001Z,2.20
2023-03-16T14:22:06.502Z,2.37
2023-03-16T14:24:36.955Z,2.13
2023-03-16T14:27:23.560Z,2.03
2023-03-16T14:30:25.904Z,2.00
2023-03-16T14:33:04.582Z,2.00
2023-03-16T14:35:40.657Z,1.90
2023-03-16T14:38:27.150Z,1.80
2023-03-16T14:40:56.628Z,2.07
2023-03-16T14:43:29.243Z,2.10
2023-03-16T14:45:55.677Z,2.00
2023-03-16T14:48:22.210Z,2.10
2023-03-16T14:50:54.613Z,2.17
2023-03-16T14:53:21.736Z,2.03
2023-03-16T14:55:48.072Z,1.87
2023-03-16T14:58:14.418Z,1.90
2023-03-16T15:00:52.248Z,1.70
2023-03-16T15:03:33.033Z,2.17
2023-03-16T15:06:01.216Z,2.00
2023-03-16T15:08:33.794Z,2.27
2023-03-16T15:11:02.759Z,1.80
2023-03-16T15:13:42.301Z,1.93
2023-03-16T15:16:13.869Z,1.67
2023-03-16T15:18:41.688Z,2.00
2023-03-16T15:21:13.707Z,2.00
2023-03-16T15:23:42.739Z,1.70
2023-03-16T15:26:11.970Z,2.07
2023-03-16T15:28:38.610Z,2.00
2023-03-16T15:31:06.157Z,2.30
2023-03-16T15:33:34.466Z,1.90
2023-03-16T15:36:09.783Z,2.13
2023-03-16T15:38:39.951Z,1.87
2023-03-16T15:41:11.212Z,2.00
2023-03-16T15:43:38.412Z,2.13
2023-03-16T15:46:06.203Z,2.20
2023-03-16T15:48:33.219Z,2.10
2023-03-16T15:51:02.352Z,2.00
2023-03-16T15:53:36.039Z,2.10
2023-03-16T15:56:30.911Z,1.93
2023-03-16T15:59:00.468Z,2.00
2023-03-16T16:01:31.883Z,1.90
2023-03-16T16:03:59.022Z,2.10
2023-03-16T16:06:27.362Z,2.23
2023-03-16T16:08:54.242Z,2.10
2023-03-16T16:11:26.241Z,2.27
2023-03-16T16:13:55.703Z,2.00
2023-03-16T16:16:22.628Z,2.33
2023-03-16T16:18:49.340Z,2.17
2023-03-16T16:21:23.097Z,2.50
2023-03-16T16:23:51.381Z,1.90
2023-03-16T16:26:54.836Z,1.90
2023-03-16T16:29:30.596Z,1.87
2023-03-16T16:31:57.165Z,1.97
2023-03-16T16:34:24.865Z,1.80
2023-03-16T16:36:54.223Z,1.83
2023-03-16T16:39:20.927Z,1.90
2023-03-16T16:41:49.650Z,1.90
2023-03-16T16:44:23.512Z,1.90
2023-03-16T16:46:51.008Z,2.20
2023-03-16T16:49:30.443Z,2.07
2023-03-16T16:51:57.409Z,2.00
2023-03-16T16:54:27.620Z,1.97
2023-03-16T16:56:55.557Z,1.90
2023-03-16T16:59:24.844Z,2.00
2023-03-16T17:01:52.401Z,2.30
2023-03-16T17:04:23.197Z,2.20
2023-03-16T17:06:55.278Z,2.27
2023-03-16T17:09:22.126Z,2.00
2023-03-16T17:11:48.874Z,2.20
2023-03-16T17:14:17.951Z,2.10
2023-03-16T17:16:46.958Z,2.00
2023-03-16T17:19:27.213Z,2.10
2023-03-16T17:21:57.118Z,1.97
2023-03-16T17:24:24.354Z,2.20
2023-03-16T17:26:55.220Z,2.10
2023-03-16T17:29:30.020Z,2.00
2023-03-16T17:31:56.592Z,2.10
2023-03-16T17:34:25.768Z,2.17
2023-03-16T17:36:52.449Z,2.50
2023-03-16T17:39:21.063Z,3.90
2023-03-16T17:41:51.684Z,3.67
2023-03-16T17:44:19.976Z,3.27
2023-03-16T17:46:46.795Z,3.70
2023-03-16T17:49:14.825Z,2.93
2023-03-16T17:51:42.073Z,2.63
2023-03-16T17:54:08.771Z,3.10
2023-03-16T17:56:37.051Z,3.30
2023-03-16T17:59:07.571Z,3.17
2023-03-16T18:01:35.899Z,3.43
2023-03-16T18:04:02.634Z,3.80
2023-03-16T18:06:31.129Z,4.70
2023-03-16T18:08:57.478Z,3.80
2023-03-16T18:11:37.377Z,3.83
2023-03-16T18:14:06.601Z,3.13
2023-03-16T18:16:33.189Z,3.77
2023-03-16T18:19:19.616Z,3.40
2023-03-16T18:21:45.919Z,3.47
2023-03-16T18:24:15.878Z,3.33
2023-03-16T18:26:42.607Z,2.90
2023-03-16T18:29:08.943Z,3.20
2023-03-16T18:31:35.790Z,2.90
2023-03-16T18:34:05.964Z,3.13
2023-03-16T18:36:37.989Z,2.73
2023-03-16T18:39:06.895Z,2.80
2023-03-16T18:41:35.050Z,3.00
2023-03-16T18:44:17.724Z,2.90
2023-03-16T18:46:46.046Z,2.90
2023-03-16T18:49:18.620Z,3.10
2023-03-16T18:51:49.790Z,3.40
2023-03-16T18:54:20.910Z,3.50
2023-03-16T18:56:47.738Z,3.50
2023-03-16T18:59:14.341Z,3.23
2023-03-16T19:01:42.754Z,3.30
2023-03-16T19:04:19.747Z,3.83
2023-03-16T19:06:46.425Z,3.53
2023-03-16T19:09:29.428Z,4.77
2023-03-16T19:11:56.094Z,3.87
2023-03-16T19:14:28.164Z,3.90
2023-03-16T19:16:55.530Z,4.00
2023-03-16T19:19:23.242Z,3.73
2023-03-16T19:21:53.566Z,3.67
2023-03-16T19:24:28.798Z,3.63
2023-03-16T19:26:56.518Z,3.73
2023-03-16T19:29:29.038Z,3.37
2023-03-16T19:31:56.383Z,3.70
2023-03-16T19:34:23.049Z,3.53
2023-03-16T19:36:49.631Z,3.40
2023-03-16T19:39:16.980Z,3.30
2023-03-16T19:41:45.965Z,3.70
2023-03-16T19:44:22.110Z,3.50
2023-03-16T19:46:48.734Z,3.80
2023-03-16T19:49:23.906Z,3.50
2023-03-16T19:51:52.099Z,3.60
2023-03-16T19:54:22.695Z,4.50
2023-03-16T19:56:49.997Z,4.30
2023-03-16T19:59:16.502Z,4.47
2023-03-16T20:01:42.893Z,4.73
2023-03-16T20:04:20.019Z,3.80
2023-03-16T20:06:49.358Z,3.80
2023-03-16T20:09:16.900Z,3.87
2023-03-16T20:11:43.790Z,3.90
2023-03-16T20:14:26.924Z,3.80
2023-03-16T20:16:53.312Z,3.57
2023-03-16T20:19:22.176Z,4.07
2023-03-16T20:21:48.782Z,4.57
2023-03-16T20:24:17.358Z,4.10
2023-03-16T20:26:45.559Z,3.73
2023-03-16T20:29:27.808Z,4.20
2023-03-16T20:31:54.398Z,4.30
2023-03-16T20:34:24.295Z,4.33
2023-03-16T20:36:50.721Z,4.57
2023-03-16T20:39:17.142Z,4.60
2023-03-16T20:41:43.690Z,4.50
2023-03-16T20:44:15.402Z,4.23
2023-03-16T20:46:44.507Z,4.00
2023-03-16T20:49:22.749Z,4.13
2023-03-16T20:51:49.795Z,4.80
2023-03-16T20:54:16.242Z,4.00
2023-03-16T20:56:42.906Z,4.57
2023-03-16T20:59:23.495Z,4.43
2023-03-16T21:01:51.664Z,4.53
2023-03-16T21:04:24.373Z,4.37
2023-03-16T21:06:51.225Z,4.40
2023-03-16T21:09:18.975Z,3.80
2023-03-16T21:11:46.793Z,4.03
2023-03-16T21:14:20.002Z,4.20
2023-03-16T21:16:46.332Z,4.27
2023-03-16T21:19:17.879Z,5.00
2023-03-16T21:21:45.228Z,5.80
2023-03-16T21:24:11.644Z,4.40
2023-03-16T21:26:39.374Z,4.53
2023-03-16T21:29:12.625Z,4.33
2023-03-16T21:31:39.039Z,4.73
2023-03-16T21:34:05.598Z,5.03
2023-03-16T21:36:31.966Z,5.10
2023-03-16T21:38:58.321Z,5.10
2023-03-16T21:41:24.624Z,5.20
2023-03-16T21:43:51.618Z,5.10
2023-03-16T21:46:23.074Z,5.40
2023-03-16T21:48:51.574Z,4.97
2023-03-16T21:51:21.848Z,5.00
2023-03-16T21:53:49.222Z,4.70
2023-03-16T21:56:18.219Z,4.93
2023-03-16T21:58:45.818Z,5.37
2023-03-16T22:01:27.480Z,4.83
2023-03-16T22:04:01.128Z,5.63
2023-03-16T22:06:30.644Z,5.50
2023-03-16T22:08:59.448Z,5.37
2023-03-16T22:11:28.833Z,4.73
2023-03-16T22:13:56.967Z,4.97
2023-03-16T22:16:26.222Z,4.97
2023-03-16T22:18:56.416Z,5.30
2023-03-16T22:21:28.541Z,5.23
2023-03-16T22:23:56.980Z,5.33
2023-03-16T22:26:24.760Z,5.57
2023-03-16T22:28:52.371Z,5.20
2023-03-16T22:31:29.565Z,5.83
2023-03-16T22:33:56.101Z,5.30
2023-03-16T22:36:22.888Z,4.90
2023-03-16T22:39:12.164Z,4.40
2023-03-16T22:41:38.532Z,5.40
2023-03-16T22:44:05.027Z,5.33
2023-03-16T22:46:31.425Z,5.17
2023-03-16T22:48:57.914Z,5.70
2023-03-16T22:51:32.716Z,5.53
2023-03-16T22:54:08.724Z,5.50
2023-03-16T22:56:35.411Z,5.10
2023-03-16T22:59:05.673Z,5.20
2023-03-16T23:01:37.512Z,5.30
2023-03-16T23:04:13.526Z,4.47
2023-03-16T23:06:39.876Z,4.80
2023-03-16T23:09:06.648Z,5.03
2023-03-16T23:11:35.702Z,5.60
2023-03-16T23:14:02.494Z,4.97
2023-03-16T23:16:35.715Z,5.80
2023-03-16T23:19:03.262Z,5.13
2023-03-16T23:21:30.828Z,4.87
2023-03-16T23:24:03.902Z,5.37
2023-03-16T23:26:31.456Z,5.10
2023-03-16T23:28:57.954Z,5.80
2023-03-16T23:31:27.049Z,5.10
2023-03-16T23:33:53.398Z,6.03
2023-03-16T23:36:22.290Z,5.17
2023-03-16T23:38:49.730Z,5.37
2023-03-16T23:41:19.949Z,5.77
2023-03-16T23:43:47.312Z,5.80
2023-03-16T23:46:17.000Z,5.90
2023-03-16T23:48:45.833Z,6.03
2023-03-16T23:51:21.081Z,6.03
2023-03-16T23:53:47.985Z,5.50
2023-03-16T23:56:14.580Z,5.70
2023-03-16T23:58:41.810Z,6.10
